Decoded Metar for KVTI (VINTON in IA, USA) (IATA:VTI) | Meteo·Mobile Aviation Weather
aviador You're here:

KVTI Decoded Metar

VINTON in IA, USA
Report Time2018-12-14 12:15:00
UTC Time2018-12-14 12:25:41
Flight Rules lifr LIFR
Wind360° at 11 kt
W.Decomp.*RWY 34: 10.4 kt HW 3.6 kt RCW
RWY 27: 0.2 kt HW 11.0 kt RCW
Visibility1609 m
Phenomena:Mist
Clouds:Overcast 001 Hf
Ceiling100 ft
Temp-2°C (ISA -15)
Dew Point-2°C (100% RH)
AAT-8.2°C
QNH1024 hPa
Density Alt-1,342 ft
Elevation837 ft
Report Wrong Elevation
Raw Report
KVTI 141215Z AUTO 36011KT 1SM BR OVC001 M02/M02 A3023 RMK AO2
T10201020=

Extra information for KVTI:More info

Metar Taf Metar & Taf Last 4 Metars F.Rules Stats Wind Profile Meteogram Temp Stats Airport Information Weather charts Add Link Nearby VenuesMetar ALERT Operation Metar Decoded Social comments

AIRNAV info for KVTI